sensor_id;sensor_type;location;lat;lon;timestamp;pressure;altitude;pressure_sealevel;temperature;humidity
64078;BME280;51039;49.696;10.808;2023-04-01T00:01:30;96838.56;;;7.88;96.29
64078;BME280;51039;49.696;10.808;2023-04-01T00:03:55;96845.22;;;7.90;96.58
64078;BME280;51039;49.696;10.808;2023-04-01T00:06:21;96836.56;;;8.01;95.49
64078;BME280;51039;49.696;10.808;2023-04-01T00:08:48;96844.81;;;8.05;95.53
64078;BME280;51039;49.696;10.808;2023-04-01T00:11:13;96836.22;;;8.10;94.91
64078;BME280;51039;49.696;10.808;2023-04-01T00:13:39;96840.84;;;8.14;94.75
64078;BME280;51039;49.696;10.808;2023-04-01T00:16:06;96841.06;;;8.13;95.07
64078;BME280;51039;49.696;10.808;2023-04-01T00:18:32;96838.88;;;8.10;95.87
64078;BME280;51039;49.696;10.808;2023-04-01T00:20:57;96828.81;;;8.18;95.32
64078;BME280;51039;49.696;10.808;2023-04-01T00:23:22;96842.81;;;8.19;95.22
64078;BME280;51039;49.696;10.808;2023-04-01T00:25:48;96836.25;;;8.21;95.42
64078;BME280;51039;49.696;10.808;2023-04-01T00:28:17;96836.41;;;8.26;95.26
64078;BME280;51039;49.696;10.808;2023-04-01T00:30:44;96842.47;;;8.27;95.47
64078;BME280;51039;49.696;10.808;2023-04-01T00:33:10;96843.75;;;8.24;95.89
64078;BME280;51039;49.696;10.808;2023-04-01T00:35:35;96846.38;;;8.24;96.22
64078;BME280;51039;49.696;10.808;2023-04-01T00:38:01;96845.34;;;8.25;96.40
64078;BME280;51039;49.696;10.808;2023-04-01T00:40:29;96841.69;;;8.26;96.19
64078;BME280;51039;49.696;10.808;2023-04-01T00:42:55;96837.41;;;8.25;96.30
64078;BME280;51039;49.696;10.808;2023-04-01T00:47:55;96840.06;;;8.25;95.84
64078;BME280;51039;49.696;10.808;2023-04-01T00:50:23;96833.19;;;8.24;96.07
64078;BME280;51039;49.696;10.808;2023-04-01T00:52:50;96830.78;;;8.23;96.29
64078;BME280;51039;49.696;10.808;2023-04-01T00:55:17;96837.31;;;8.20;96.26
64078;BME280;51039;49.696;10.808;2023-04-01T00:57:44;96829.41;;;8.20;96.18
64078;BME280;51039;49.696;10.808;2023-04-01T01:00:12;96836.25;;;8.21;96.17
64078;BME280;51039;49.696;10.808;2023-04-01T01:02:43;96834.66;;;8.20;96.29
64078;BME280;51039;49.696;10.808;2023-04-01T01:05:14;96831.22;;;8.20;96.00
64078;BME280;51039;49.696;10.808;2023-04-01T01:10:35;96840.97;;;8.19;96.12
64078;BME280;51039;49.696;10.808;2023-04-01T01:13:10;96833.03;;;8.19;96.12
64078;BME280;51039;49.696;10.808;2023-04-01T01:15:46;96833.63;;;8.21;96.39
64078;BME280;51039;49.696;10.808;2023-04-01T01:18:19;96828.34;;;8.21;96.05
64078;BME280;51039;49.696;10.808;2023-04-01T01:31:35;96822.09;;;8.34;94.57
64078;BME280;51039;49.696;10.808;2023-04-01T01:34:12;96815.44;;;8.32;94.12
64078;BME280;51039;49.696;10.808;2023-04-01T01:36:47;96810.72;;;8.34;93.21
64078;BME280;51039;49.696;10.808;2023-04-01T01:39:18;96816.38;;;8.37;93.11
64078;BME280;51039;49.696;10.808;2023-04-01T01:41:51;96814.75;;;8.36;93.51
64078;BME280;51039;49.696;10.808;2023-04-01T01:44:17;96812.56;;;8.33;93.29
64078;BME280;51039;49.696;10.808;2023-04-01T01:46:44;96813.47;;;8.39;92.61
64078;BME280;51039;49.696;10.808;2023-04-01T01:49:10;96818.75;;;8.39;92.48
64078;BME280;51039;49.696;10.808;2023-04-01T01:51:39;96810.25;;;8.37;92.20
64078;BME280;51039;49.696;10.808;2023-04-01T01:54:04;96808.44;;;8.37;91.97
64078;BME280;51039;49.696;10.808;2023-04-01T01:56:30;96805.34;;;8.40;91.46
64078;BME280;51039;49.696;10.808;2023-04-01T01:59:01;96811.41;;;8.41;91.65
64078;BME280;51039;49.696;10.808;2023-04-01T02:01:31;96814.06;;;8.41;91.06
64078;BME280;51039;49.696;10.808;2023-04-01T02:04:02;96801.25;;;8.44;91.38
64078;BME280;51039;49.696;10.808;2023-04-01T02:06:30;96803.09;;;8.44;91.20
64078;BME280;51039;49.696;10.808;2023-04-01T02:09:00;96793.09;;;8.46;89.43
64078;BME280;51039;49.696;10.808;2023-04-01T02:11:46;96800.69;;;8.54;87.06
64078;BME280;51039;49.696;10.808;2023-04-01T02:14:22;96801.88;;;8.58;87.69
64078;BME280;51039;49.696;10.808;2023-04-01T02:16:54;96799.88;;;8.54;88.30
64078;BME280;51039;49.696;10.808;2023-04-01T02:19:26;96801.03;;;8.58;86.21
64078;BME280;51039;49.696;10.808;2023-04-01T02:21:59;96799.44;;;8.57;86.72
64078;BME280;51039;49.696;10.808;2023-04-01T02:24:27;96812.75;;;8.62;86.33
64078;BME280;51039;49.696;10.808;2023-04-01T02:26:56;96810.34;;;8.60;86.17
64078;BME280;51039;49.696;10.808;2023-04-01T02:29:22;96806.09;;;8.59;86.04
64078;BME280;51039;49.696;10.808;2023-04-01T02:31:51;96800.81;;;8.59;85.23
64078;BME280;51039;49.696;10.808;2023-04-01T02:34:19;96801.38;;;8.61;85.22
64078;BME280;51039;49.696;10.808;2023-04-01T02:36:46;96798.88;;;8.55;85.92
64078;BME280;51039;49.696;10.808;2023-04-01T02:39:13;96796.44;;;8.53;85.58
64078;BME280;51039;49.696;10.808;2023-04-01T02:41:42;96801.16;;;8.51;85.89
64078;BME280;51039;49.696;10.808;2023-04-01T02:44:09;96804.25;;;8.48;85.83
64078;BME280;51039;49.696;10.808;2023-04-01T02:46:36;96812.16;;;8.48;85.67
64078;BME280;51039;49.696;10.808;2023-04-01T02:49:02;96799.66;;;8.43;86.22
64078;BME280;51039;49.696;10.808;2023-04-01T02:51:27;96805.72;;;8.44;86.28
64078;BME280;51039;49.696;10.808;2023-04-01T02:53:52;96812.16;;;8.48;85.80
64078;BME280;51039;49.696;10.808;2023-04-01T02:56:18;96817.00;;;8.51;85.59
64078;BME280;51039;49.696;10.808;2023-04-01T02:58:44;96811.25;;;8.54;85.66
64078;BME280;51039;49.696;10.808;2023-04-01T03:01:10;96825.25;;;8.55;85.85
64078;BME280;51039;49.696;10.808;2023-04-01T03:03:36;96823.63;;;8.54;85.92
64078;BME280;51039;49.696;10.808;2023-04-01T03:06:08;96807.44;;;8.50;86.31
64078;BME280;51039;49.696;10.808;2023-04-01T03:08:35;96819.16;;;8.54;85.70
64078;BME280;51039;49.696;10.808;2023-04-01T03:11:01;96828.13;;;8.53;85.85
64078;BME280;51039;49.696;10.808;2023-04-01T03:13:27;96820.44;;;8.52;85.66
64078;BME280;51039;49.696;10.808;2023-04-01T03:15:52;96818.13;;;8.55;86.01
64078;BME280;51039;49.696;10.808;2023-04-01T03:18:18;96834.78;;;8.56;85.67
64078;BME280;51039;49.696;10.808;2023-04-01T03:20:43;96827.53;;;8.51;86.41
64078;BME280;51039;49.696;10.808;2023-04-01T03:23:08;96833.97;;;8.55;86.08
64078;BME280;51039;49.696;10.808;2023-04-01T03:25:34;96828.69;;;8.55;85.48
64078;BME280;51039;49.696;10.808;2023-04-01T03:27:59;96835.56;;;8.56;86.07
64078;BME280;51039;49.696;10.808;2023-04-01T03:30:25;96820.19;;;8.53;85.81
64078;BME280;51039;49.696;10.808;2023-04-01T03:32:51;96831.56;;;8.54;85.80
64078;BME280;51039;49.696;10.808;2023-04-01T03:35:16;96837.19;;;8.57;85.39
64078;BME280;51039;49.696;10.808;2023-04-01T03:37:42;96837.19;;;8.57;85.58
64078;BME280;51039;49.696;10.808;2023-04-01T03:40:08;96836.03;;;8.53;85.74
64078;BME280;51039;49.696;10.808;2023-04-01T03:42:34;96827.91;;;8.55;85.85
64078;BME280;51039;49.696;10.808;2023-04-01T03:45:00;96839.81;;;8.57;85.51
64078;BME280;51039;49.696;10.808;2023-04-01T03:47:25;96844.53;;;8.55;85.67
64078;BME280;51039;49.696;10.808;2023-04-01T03:49:51;96834.56;;;8.57;84.78
64078;BME280;51039;49.696;10.808;2023-04-01T03:52:16;96835.91;;;8.60;84.64
64078;BME280;51039;49.696;10.808;2023-04-01T03:54:41;96834.19;;;8.54;84.68
64078;BME280;51039;49.696;10.808;2023-04-01T03:57:07;96830.53;;;8.55;84.90
64078;BME280;51039;49.696;10.808;2023-04-01T03:59:32;96830.75;;;8.53;84.82
64078;BME280;51039;49.696;10.808;2023-04-01T04:01:58;96836.84;;;8.54;84.19
64078;BME280;51039;49.696;10.808;2023-04-01T04:04:23;96831.56;;;8.54;84.85
64078;BME280;51039;49.696;10.808;2023-04-01T04:06:48;96832.34;;;8.54;84.18
64078;BME280;51039;49.696;10.808;2023-04-01T04:09:14;96836.03;;;8.53;84.29
64078;BME280;51039;49.696;10.808;2023-04-01T04:11:39;96837.06;;;8.52;85.24
64078;BME280;51039;49.696;10.808;2023-04-01T04:14:04;96844.28;;;8.45;86.33
64078;BME280;51039;49.696;10.808;2023-04-01T04:16:30;96832.53;;;8.41;86.76
64078;BME280;51039;49.696;10.808;2023-04-01T04:18:55;96834.00;;;8.37;87.54
64078;BME280;51039;49.696;10.808;2023-04-01T04:21:20;96841.56;;;8.33;87.86
64078;BME280;51039;49.696;10.808;2023-04-01T04:23:46;96839.19;;;8.32;87.90
64078;BME280;51039;49.696;10.808;2023-04-01T04:26:12;96833.19;;;8.24;89.51
64078;BME280;51039;49.696;10.808;2023-04-01T04:28:39;96827.88;;;8.13;90.71
64078;BME280;51039;49.696;10.808;2023-04-01T04:31:05;96844.34;;;8.08;91.12
64078;BME280;51039;49.696;10.808;2023-04-01T04:33:31;96845.19;;;8.09;91.29
64078;BME280;51039;49.696;10.808;2023-04-01T04:35:58;96842.75;;;8.07;91.70
64078;BME280;51039;49.696;10.808;2023-04-01T04:38:24;96836.97;;;7.98;92.88
64078;BME280;51039;49.696;10.808;2023-04-01T04:40:51;96832.97;;;7.96;92.36
64078;BME280;51039;49.696;10.808;2023-04-01T04:43:17;96838.47;;;7.94;92.90
64078;BME280;51039;49.696;10.808;2023-04-01T04:45:43;96838.56;;;7.88;92.43
64078;BME280;51039;49.696;10.808;2023-04-01T04:48:10;96841.31;;;7.93;91.76
64078;BME280;51039;49.696;10.808;2023-04-01T04:50:41;96845.72;;;7.99;91.38
64078;BME280;51039;49.696;10.808;2023-04-01T04:53:06;96848.13;;;8.00;91.36
64078;BME280;51039;49.696;10.808;2023-04-01T04:55:31;96848.69;;;8.02;89.88
64078;BME280;51039;49.696;10.808;2023-04-01T04:57:56;96839.19;;;8.01;91.13
64078;BME280;51039;49.696;10.808;2023-04-01T05:00:22;96843.66;;;8.01;91.04
64078;BME280;51039;49.696;10.808;2023-04-01T05:02:47;96846.06;;;8.02;90.29
64078;BME280;51039;49.696;10.808;2023-04-01T05:05:12;96847.69;;;8.03;90.76
64078;BME280;51039;49.696;10.808;2023-04-01T05:07:38;96848.03;;;8.07;90.06
64078;BME280;51039;49.696;10.808;2023-04-01T05:10:03;96848.63;;;8.09;90.01
64078;BME280;51039;49.696;10.808;2023-04-01T05:12:29;96845.97;;;8.09;90.20
64078;BME280;51039;49.696;10.808;2023-04-01T05:14:54;96848.63;;;8.09;90.55
64078;BME280;51039;49.696;10.808;2023-04-01T05:17:20;96845.84;;;8.04;90.72
64078;BME280;51039;49.696;10.808;2023-04-01T05:19:45;96843.66;;;8.01;91.11
64078;BME280;51039;49.696;10.808;2023-04-01T05:22:10;96851.47;;;8.07;90.88
64078;BME280;51039;49.696;10.808;2023-04-01T05:24:35;96837.13;;;8.03;90.99
64078;BME280;51039;49.696;10.808;2023-04-01T05:27:01;96845.03;;;8.03;90.99
64078;BME280;51039;49.696;10.808;2023-04-01T05:29:26;96851.31;;;8.02;91.70
64078;BME280;51039;49.696;10.808;2023-04-01T05:31:52;96847.56;;;8.10;91.34
64078;BME280;51039;49.696;10.808;2023-04-01T05:34:17;96844.06;;;8.16;90.66
64078;BME280;51039;49.696;10.808;2023-04-01T05:36:43;96846.34;;;8.13;91.03
64078;BME280;51039;49.696;10.808;2023-04-01T05:39:09;96844.88;;;8.17;91.00
64078;BME280;51039;49.696;10.808;2023-04-01T05:41:35;96839.38;;;8.18;90.43
64078;BME280;51039;49.696;10.808;2023-04-01T05:44:01;96847.31;;;8.30;90.08
64078;BME280;51039;49.696;10.808;2023-04-01T05:46:27;96846.41;;;8.36;89.78
64078;BME280;51039;49.696;10.808;2023-04-01T05:48:52;96841.06;;;8.43;89.31
64078;BME280;51039;49.696;10.808;2023-04-01T05:51:17;96853.38;;;8.31;90.09
64078;BME280;51039;49.696;10.808;2023-04-01T05:53:43;96838.28;;;8.38;89.55
64078;BME280;51039;49.696;10.808;2023-04-01T05:56:08;96838.84;;;8.40;89.20
64078;BME280;51039;49.696;10.808;2023-04-01T05:58:37;96849.22;;;8.41;89.57
64078;BME280;51039;49.696;10.808;2023-04-01T06:01:03;96832.13;;;8.44;89.21
64078;BME280;51039;49.696;10.808;2023-04-01T06:03:29;96843.38;;;8.51;89.11
64078;BME280;51039;49.696;10.808;2023-04-01T06:05:55;96841.19;;;8.60;88.81
64078;BME280;51039;49.696;10.808;2023-04-01T06:08:20;96845.81;;;8.76;87.74
64078;BME280;51039;49.696;10.808;2023-04-01T06:20:12;96859.13;;;8.70;87.27
64078;BME280;51039;49.696;10.808;2023-04-01T06:22:58;96859.38;;;8.68;86.05
64078;BME280;51039;49.696;10.808;2023-04-01T06:31:25;96854.31;;;8.67;86.70
64078;BME280;51039;49.696;10.808;2023-04-01T06:37:08;96853.41;;;8.73;86.89
64078;BME280;51039;49.696;10.808;2023-04-01T06:39:52;96851.19;;;8.70;87.22
64078;BME280;51039;49.696;10.808;2023-04-01T06:42:31;96845.81;;;8.76;87.25
64078;BME280;51039;49.696;10.808;2023-04-01T06:50:39;96852.59;;;8.96;86.79
64078;BME280;51039;49.696;10.808;2023-04-01T06:53:21;96855.59;;;8.99;86.00
64078;BME280;51039;49.696;10.808;2023-04-01T06:56:04;96847.81;;;9.04;86.12
64078;BME280;51039;49.696;10.808;2023-04-01T06:58:41;96848.59;;;9.17;86.36
64078;BME280;51039;49.696;10.808;2023-04-01T07:01:22;96844.31;;;9.16;86.53
64078;BME280;51039;49.696;10.808;2023-04-01T07:03:57;96854.44;;;9.31;85.44
64078;BME280;51039;49.696;10.808;2023-04-01T07:06:30;96840.31;;;9.25;84.84
64078;BME280;51039;49.696;10.808;2023-04-01T07:09:02;96838.09;;;9.46;84.18
64078;BME280;51039;49.696;10.808;2023-04-01T07:11:34;96839.81;;;9.52;83.93
64078;BME280;51039;49.696;10.808;2023-04-01T07:14:04;96839.41;;;9.72;83.66
64078;BME280;51039;49.696;10.808;2023-04-01T07:19:35;96837.94;;;10.05;81.94
64078;BME280;51039;49.696;10.808;2023-04-01T07:22:26;96839.41;;;10.12;80.45
64078;BME280;51039;49.696;10.808;2023-04-01T07:24:57;96836.31;;;10.03;80.72
64078;BME280;51039;49.696;10.808;2023-04-01T07:27:30;96839.97;;;10.14;80.28
64078;BME280;51039;49.696;10.808;2023-04-01T07:29:56;96831.34;;;10.07;80.76
64078;BME280;51039;49.696;10.808;2023-04-01T07:35:13;96833.78;;;10.37;78.13
64078;BME280;51039;49.696;10.808;2023-04-01T07:37:52;96844.59;;;10.36;77.82
64078;BME280;51039;49.696;10.808;2023-04-01T07:46:19;96842.59;;;10.14;78.61
64078;BME280;51039;49.696;10.808;2023-04-01T07:48:54;96859.50;;;10.13;77.97
64078;BME280;51039;49.696;10.808;2023-04-01T07:51:44;96855.69;;;10.21;78.33
64078;BME280;51039;49.696;10.808;2023-04-01T07:54:36;96853.66;;;10.40;78.52
64078;BME280;51039;49.696;10.808;2023-04-01T08:02:33;96850.63;;;10.48;75.97
64078;BME280;51039;49.696;10.808;2023-04-01T08:05:19;96857.66;;;10.43;75.72
64078;BME280;51039;49.696;10.808;2023-04-01T08:10:38;96861.38;;;10.58;77.41
64078;BME280;51039;49.696;10.808;2023-04-01T08:16:50;96875.09;;;10.55;79.60
64078;BME280;51039;49.696;10.808;2023-04-01T08:19:42;96869.88;;;10.44;79.09
64078;BME280;51039;49.696;10.808;2023-04-01T08:25:13;96873.31;;;10.15;80.09
64078;BME280;51039;49.696;10.808;2023-04-01T08:27:46;96866.50;;;10.19;79.87
64078;BME280;51039;49.696;10.808;2023-04-01T08:30:18;96859.63;;;10.18;80.00
64078;BME280;51039;49.696;10.808;2023-04-01T08:32:59;96873.19;;;10.10;80.37
64078;BME280;51039;49.696;10.808;2023-04-01T08:35:32;96874.81;;;10.11;81.66
64078;BME280;51039;49.696;10.808;2023-04-01T08:38:06;96865.28;;;9.81;81.23
64078;BME280;51039;49.696;10.808;2023-04-01T08:40:51;96874.59;;;9.72;83.37
64078;BME280;51039;49.696;10.808;2023-04-01T08:43:36;96863.88;;;9.79;84.04
64078;BME280;51039;49.696;10.808;2023-04-01T08:46:34;96874.34;;;9.86;83.64
64078;BME280;51039;49.696;10.808;2023-04-01T08:49:13;96866.09;;;9.70;84.60
64078;BME280;51039;49.696;10.808;2023-04-01T09:02:25;96870.59;;;9.58;86.12
64078;BME280;51039;49.696;10.808;2023-04-01T09:11:35;96884.19;;;9.90;85.95
64078;BME280;51039;49.696;10.808;2023-04-01T09:17:29;96873.13;;;10.05;85.60
64078;BME280;51039;49.696;10.808;2023-04-01T09:29:02;96880.34;;;10.10;84.72
64078;BME280;51039;49.696;10.808;2023-04-01T09:37:20;96884.34;;;10.53;86.83
64078;BME280;51039;49.696;10.808;2023-04-01T09:45:35;96885.69;;;10.89;87.48
64078;BME280;51039;49.696;10.808;2023-04-01T09:51:00;96889.47;;;11.10;85.79
64078;BME280;51039;49.696;10.808;2023-04-01T09:53:49;96886.22;;;11.03;84.80
64078;BME280;51039;49.696;10.808;2023-04-01T10:29:48;96890.47;;;10.70;90.09
64078;BME280;51039;49.696;10.808;2023-04-01T10:32:29;96886.94;;;10.36;92.39
64078;BME280;51039;49.696;10.808;2023-04-01T10:52:11;96882.13;;;9.92;93.71
64078;BME280;51039;49.696;10.808;2023-04-01T10:57:37;96879.00;;;10.36;92.91
64078;BME280;51039;49.696;10.808;2023-04-01T11:00:18;96867.41;;;10.71;92.36
64078;BME280;51039;49.696;10.808;2023-04-01T11:11:55;96870.75;;;10.66;89.81
64078;BME280;51039;49.696;10.808;2023-04-01T11:17:50;96873.59;;;10.59;90.04
64078;BME280;51039;49.696;10.808;2023-04-01T11:34:43;96882.22;;;9.97;94.57
64078;BME280;51039;49.696;10.808;2023-04-01T11:46:44;96886.72;;;9.85;95.98
64078;BME280;51039;49.696;10.808;2023-04-01T11:49:37;96885.19;;;9.72;95.20
64078;BME280;51039;49.696;10.808;2023-04-01T11:58:18;96887.91;;;9.89;96.56
64078;BME280;51039;49.696;10.808;2023-04-01T12:03:45;96883.94;;;10.03;96.07
64078;BME280;51039;49.696;10.808;2023-04-01T12:06:41;96892.22;;;10.07;96.15
64078;BME280;51039;49.696;10.808;2023-04-01T12:12:23;96900.72;;;10.09;96.26
64078;BME280;51039;49.696;10.808;2023-04-01T12:15:19;96886.53;;;10.15;96.61
64078;BME280;51039;49.696;10.808;2023-04-01T12:18:06;96889.78;;;10.06;96.20
64078;BME280;51039;49.696;10.808;2023-04-01T12:32:05;96893.25;;;10.35;95.39
64078;BME280;51039;49.696;10.808;2023-04-01T12:42:46;96895.41;;;10.67;93.49
64078;BME280;51039;49.696;10.808;2023-04-01T12:59:40;96898.63;;;10.11;96.61
64078;BME280;51039;49.696;10.808;2023-04-01T13:02:25;96898.59;;;10.23;97.23
64078;BME280;51039;49.696;10.808;2023-04-01T13:07:41;96901.69;;;10.32;97.16
64078;BME280;51039;49.696;10.808;2023-04-01T13:13:16;96894.97;;;10.41;97.71
64078;BME280;51039;49.696;10.808;2023-04-01T13:15:31;96912.00;;;10.45;97.08
64078;BME280;51039;49.696;10.808;2023-04-01T13:20:43;96907.34;;;10.52;96.80
64078;BME280;51039;49.696;10.808;2023-04-01T13:26:34;96903.63;;;10.36;96.83
64078;BME280;51039;49.696;10.808;2023-04-01T13:29:10;96915.69;;;10.03;99.44
64078;BME280;51039;49.696;10.808;2023-04-01T13:34:39;96914.47;;;9.82;100.00
64078;BME280;51039;49.696;10.808;2023-04-01T13:37:33;96919.94;;;10.05;100.00
64078;BME280;51039;49.696;10.808;2023-04-01T13:42:56;96923.53;;;10.27;98.57
64078;BME280;51039;49.696;10.808;2023-04-01T13:45:26;96923.31;;;10.29;99.55
64078;BME280;51039;49.696;10.808;2023-04-01T14:01:35;96935.00;;;10.45;98.35
64078;BME280;51039;49.696;10.808;2023-04-01T14:04:11;96936.91;;;10.32;100.00
64078;BME280;51039;49.696;10.808;2023-04-01T14:15:50;96936.28;;;10.42;99.34
64078;BME280;51039;49.696;10.808;2023-04-01T14:31:48;96946.91;;;9.78;100.00
64078;BME280;51039;49.696;10.808;2023-04-01T14:37:15;96955.41;;;9.80;100.00
64078;BME280;51039;49.696;10.808;2023-04-01T14:39:58;96956.09;;;9.75;100.00
64078;BME280;51039;49.696;10.808;2023-04-01T14:42:48;96957.81;;;9.81;100.00
64078;BME280;51039;49.696;10.808;2023-04-01T14:45:44;96956.91;;;9.76;100.00
64078;BME280;51039;49.696;10.808;2023-04-01T14:48:21;96958.81;;;9.92;100.00
64078;BME280;51039;49.696;10.808;2023-04-01T14:50:53;96953.06;;;10.07;100.00
64078;BME280;51039;49.696;10.808;2023-04-01T14:55:50;96955.09;;;10.17;100.00
64078;BME280;51039;49.696;10.808;2023-04-01T14:58:22;96948.94;;;9.99;100.00
64078;BME280;51039;49.696;10.808;2023-04-01T15:01:07;96948.81;;;9.94;100.00
64078;BME280;51039;49.696;10.808;2023-04-01T15:07:12;96951.13;;;9.79;100.00
64078;BME280;51039;49.696;10.808;2023-04-01T15:10:12;96946.50;;;9.98;100.00
64078;BME280;51039;49.696;10.808;2023-04-01T15:15:39;96956.22;;;10.33;100.00
64078;BME280;51039;49.696;10.808;2023-04-01T15:18:17;96950.72;;;10.22;100.00
64078;BME280;51039;49.696;10.808;2023-04-01T15:24:10;96952.16;;;10.42;100.00
64078;BME280;51039;49.696;10.808;2023-04-01T15:27:03;96954.94;;;10.23;99.93
64078;BME280;51039;49.696;10.808;2023-04-01T15:32:49;96962.72;;;10.01;100.00
64078;BME280;51039;49.696;10.808;2023-04-01T15:35:38;96970.00;;;9.71;100.00
64078;BME280;51039;49.696;10.808;2023-04-01T15:41:10;96983.69;;;9.44;100.00
64078;BME280;51039;49.696;10.808;2023-04-01T15:43:48;96974.38;;;9.41;100.00
64078;BME280;51039;49.696;10.808;2023-04-01T15:54:23;96981.25;;;9.19;100.00
64078;BME280;51039;49.696;10.808;2023-04-01T16:02:50;96991.25;;;9.17;100.00
64078;BME280;51039;49.696;10.808;2023-04-01T16:05:35;96987.44;;;9.13;100.00
64078;BME280;51039;49.696;10.808;2023-04-01T16:11:03;97002.16;;;9.09;100.00
64078;BME280;51039;49.696;10.808;2023-04-01T16:13:49;96998.94;;;9.07;100.00
64078;BME280;51039;49.696;10.808;2023-04-01T16:16:38;97003.84;;;9.03;100.00
64078;BME280;51039;49.696;10.808;2023-04-01T16:19:28;97004.97;;;8.95;100.00
64078;BME280;51039;49.696;10.808;2023-04-01T16:25:20;97006.53;;;8.84;100.00
64078;BME280;51039;49.696;10.808;2023-04-01T16:33:44;97017.47;;;8.88;100.00
64078;BME280;51039;49.696;10.808;2023-04-01T16:36:28;97009.69;;;8.93;100.00
64078;BME280;51039;49.696;10.808;2023-04-01T16:39:15;97014.81;;;8.88;100.00
64078;BME280;51039;49.696;10.808;2023-04-01T16:44:31;97018.97;;;8.96;100.00
64078;BME280;51039;49.696;10.808;2023-04-01T16:47:22;97020.25;;;8.93;100.00
64078;BME280;51039;49.696;10.808;2023-04-01T16:50:00;97019.66;;;8.91;100.00
64078;BME280;51039;49.696;10.808;2023-04-01T16:55:17;97028.34;;;8.80;100.00
64078;BME280;51039;49.696;10.808;2023-04-01T16:58:06;97035.53;;;8.73;100.00
64078;BME280;51039;49.696;10.808;2023-04-01T17:00:39;97034.75;;;8.72;100.00
64078;BME280;51039;49.696;10.808;2023-04-01T17:03:15;97027.41;;;8.74;100.00
64078;BME280;51039;49.696;10.808;2023-04-01T17:08:41;97042.25;;;8.87;100.00
64078;BME280;51039;49.696;10.808;2023-04-01T17:11:21;97044.59;;;8.95;100.00
64078;BME280;51039;49.696;10.808;2023-04-01T17:13:58;97044.00;;;8.93;100.00
64078;BME280;51039;49.696;10.808;2023-04-01T17:16:44;97052.00;;;8.87;100.00
64078;BME280;51039;49.696;10.808;2023-04-01T17:24:51;97062.75;;;8.73;100.00
64078;BME280;51039;49.696;10.808;2023-04-01T17:33:20;97072.75;;;8.53;100.00
64078;BME280;51039;49.696;10.808;2023-04-01T17:35:59;97073.97;;;8.50;100.00
64078;BME280;51039;49.696;10.808;2023-04-01T17:41:05;97068.50;;;8.52;100.00
64078;BME280;51039;49.696;10.808;2023-04-01T17:43:44;97070.75;;;8.48;100.00
64078;BME280;51039;49.696;10.808;2023-04-01T17:48:54;97085.81;;;8.41;100.00
64078;BME280;51039;49.696;10.808;2023-04-01T17:51:43;97090.53;;;8.39;100.00
64078;BME280;51039;49.696;10.808;2023-04-01T17:59:38;97089.94;;;8.37;100.00
64078;BME280;51039;49.696;10.808;2023-04-01T18:02:22;97093.63;;;8.36;100.00
64078;BME280;51039;49.696;10.808;2023-04-01T18:05:23;97102.13;;;8.38;100.00
64078;BME280;51039;49.696;10.808;2023-04-01T18:08:05;97105.34;;;8.40;100.00
64078;BME280;51039;49.696;10.808;2023-04-01T18:10:46;97102.91;;;8.38;100.00
64078;BME280;51039;49.696;10.808;2023-04-01T18:13:34;97114.50;;;8.37;100.00
64078;BME280;51039;49.696;10.808;2023-04-01T18:18:48;97114.06;;;8.40;100.00
64078;BME280;51039;49.696;10.808;2023-04-01T18:24:12;97125.88;;;8.38;100.00
64078;BME280;51039;49.696;10.808;2023-04-01T18:26:44;97125.66;;;8.39;100.00
64078;BME280;51039;49.696;10.808;2023-04-01T18:31:44;97142.69;;;8.37;100.00
64078;BME280;51039;49.696;10.808;2023-04-01T18:34:16;97139.47;;;8.35;100.00
64078;BME280;51039;49.696;10.808;2023-04-01T18:36:57;97139.47;;;8.35;100.00
64078;BME280;51039;49.696;10.808;2023-04-01T18:39:33;97147.41;;;8.35;100.00
64078;BME280;51039;49.696;10.808;2023-04-01T18:42:16;97150.63;;;8.37;100.00
64078;BME280;51039;49.696;10.808;2023-04-01T18:44:49;97154.31;;;8.36;100.00
64078;BME280;51039;49.696;10.808;2023-04-01T18:47:27;97154.31;;;8.36;100.00
64078;BME280;51039;49.696;10.808;2023-04-01T18:50:42;97159.78;;;8.34;100.00
64078;BME280;51039;49.696;10.808;2023-04-01T18:56:21;97166.91;;;8.34;100.00
64078;BME280;51039;49.696;10.808;2023-04-01T18:59:11;97171.13;;;8.35;100.00
64078;BME280;51039;49.696;10.808;2023-04-01T19:02:00;97176.41;;;8.35;100.00
64078;BME280;51039;49.696;10.808;2023-04-01T19:04:45;97178.47;;;8.33;100.00
64078;BME280;51039;49.696;10.808;2023-04-01T19:07:23;97175.81;;;8.33;100.00
64078;BME280;51039;49.696;10.808;2023-04-01T19:15:31;97189.31;;;8.24;100.00
64078;BME280;51039;49.696;10.808;2023-04-01T19:21:10;97189.50;;;8.23;100.00
64078;BME280;51039;49.696;10.808;2023-04-01T19:26:42;97188.72;;;8.22;100.00
64078;BME280;51039;49.696;10.808;2023-04-01T19:37:05;97193.53;;;8.25;100.00
64078;BME280;51039;49.696;10.808;2023-04-01T19:50:49;97194.19;;;8.21;100.00
64078;BME280;51039;49.696;10.808;2023-04-01T19:56:00;97203.09;;;8.26;100.00
64078;BME280;51039;49.696;10.808;2023-04-01T20:01:11;97207.34;;;8.28;100.00
64078;BME280;51039;49.696;10.808;2023-04-01T20:06:35;97213.22;;;8.30;100.00
64078;BME280;51039;49.696;10.808;2023-04-01T20:11:59;97230.06;;;8.29;100.00
64078;BME280;51039;49.696;10.808;2023-04-01T20:14:40;97233.72;;;8.28;100.00
64078;BME280;51039;49.696;10.808;2023-04-01T20:20:24;97237.97;;;8.29;100.00
64078;BME280;51039;49.696;10.808;2023-04-01T20:25:33;97239.94;;;8.33;100.00
64078;BME280;51039;49.696;10.808;2023-04-01T20:53:16;97262.91;;;8.33;100.00
64078;BME280;51039;49.696;10.808;2023-04-01T21:04:26;97273.31;;;8.28;100.00
64078;BME280;51039;49.696;10.808;2023-04-01T21:15:39;97284.88;;;8.26;100.00
64078;BME280;51039;49.696;10.808;2023-04-01T21:21:05;97296.22;;;8.27;100.00
64078;BME280;51039;49.696;10.808;2023-04-01T21:29:40;97302.53;;;8.26;100.00
64078;BME280;51039;49.696;10.808;2023-04-01T21:35:11;97318.97;;;8.21;100.00